sensor_id;sensor_type;location;lat;lon;timestamp;P1;durP1;ratioP1;P2;durP2;ratioP2
11829;SDS011;5972;42.134;24.718;2023-03-04T00:02:12;49.33;;;31.37;;
11829;SDS011;5972;42.134;24.718;2023-03-04T00:04:39;48.63;;;31.00;;
11829;SDS011;5972;42.134;24.718;2023-03-04T00:07:06;43.80;;;31.23;;
11829;SDS011;5972;42.134;24.718;2023-03-04T00:09:34;44.23;;;31.03;;
11829;SDS011;5972;42.134;24.718;2023-03-04T00:12:01;49.27;;;30.13;;
11829;SDS011;5972;42.134;24.718;2023-03-04T00:14:28;42.43;;;30.53;;
11829;SDS011;5972;42.134;24.718;2023-03-04T00:16:55;46.13;;;29.40;;
11829;SDS011;5972;42.134;24.718;2023-03-04T00:19:22;43.77;;;30.47;;
11829;SDS011;5972;42.134;24.718;2023-03-04T00:21:49;42.43;;;30.47;;
11829;SDS011;5972;42.134;24.718;2023-03-04T00:24:16;44.93;;;32.30;;
11829;SDS011;5972;42.134;24.718;2023-03-04T00:26:44;42.00;;;30.43;;
11829;SDS011;5972;42.134;24.718;2023-03-04T00:29:11;49.53;;;31.27;;
11829;SDS011;5972;42.134;24.718;2023-03-04T00:31:38;51.83;;;31.40;;
11829;SDS011;5972;42.134;24.718;2023-03-04T00:34:05;47.10;;;30.80;;
11829;SDS011;5972;42.134;24.718;2023-03-04T00:36:31;42.77;;;30.43;;
11829;SDS011;5972;42.134;24.718;2023-03-04T00:38:58;46.03;;;31.47;;
11829;SDS011;5972;42.134;24.718;2023-03-04T00:41:25;44.23;;;30.03;;
11829;SDS011;5972;42.134;24.718;2023-03-04T00:43:53;44.97;;;30.33;;
11829;SDS011;5972;42.134;24.718;2023-03-04T00:46:20;42.40;;;30.83;;
11829;SDS011;5972;42.134;24.718;2023-03-04T00:48:47;44.60;;;32.83;;
11829;SDS011;5972;42.134;24.718;2023-03-04T00:51:13;46.30;;;29.93;;
11829;SDS011;5972;42.134;24.718;2023-03-04T00:53:40;47.73;;;31.17;;
11829;SDS011;5972;42.134;24.718;2023-03-04T00:56:07;44.07;;;30.30;;
11829;SDS011;5972;42.134;24.718;2023-03-04T00:58:34;42.13;;;30.53;;
11829;SDS011;5972;42.134;24.718;2023-03-04T01:01:02;41.80;;;30.27;;
11829;SDS011;5972;42.134;24.718;2023-03-04T01:03:29;44.00;;;30.80;;
11829;SDS011;5972;42.134;24.718;2023-03-04T01:05:56;40.27;;;30.67;;
11829;SDS011;5972;42.134;24.718;2023-03-04T01:08:23;44.67;;;29.87;;
11829;SDS011;5972;42.134;24.718;2023-03-04T01:10:50;41.37;;;29.87;;
11829;SDS011;5972;42.134;24.718;2023-03-04T01:13:18;46.83;;;30.47;;
11829;SDS011;5972;42.134;24.718;2023-03-04T01:15:44;42.53;;;29.53;;
11829;SDS011;5972;42.134;24.718;2023-03-04T01:18:12;41.80;;;29.17;;
11829;SDS011;5972;42.134;24.718;2023-03-04T01:20:39;40.87;;;29.60;;
11829;SDS011;5972;42.134;24.718;2023-03-04T01:23:06;42.77;;;29.77;;
11829;SDS011;5972;42.134;24.718;2023-03-04T01:25:33;41.67;;;30.03;;
11829;SDS011;5972;42.134;24.718;2023-03-04T01:28:00;40.03;;;29.87;;
11829;SDS011;5972;42.134;24.718;2023-03-04T01:30:26;40.87;;;29.80;;
11829;SDS011;5972;42.134;24.718;2023-03-04T01:32:53;46.40;;;32.50;;
11829;SDS011;5972;42.134;24.718;2023-03-04T01:35:21;42.90;;;30.17;;
11829;SDS011;5972;42.134;24.718;2023-03-04T01:37:48;45.33;;;30.37;;
11829;SDS011;5972;42.134;24.718;2023-03-04T01:40:15;41.57;;;30.90;;
11829;SDS011;5972;42.134;24.718;2023-03-04T01:42:42;41.47;;;29.50;;
11829;SDS011;5972;42.134;24.718;2023-03-04T01:45:10;40.93;;;29.83;;
11829;SDS011;5972;42.134;24.718;2023-03-04T01:47:39;40.57;;;30.73;;
11829;SDS011;5972;42.134;24.718;2023-03-04T01:50:14;44.83;;;29.77;;
11829;SDS011;5972;42.134;24.718;2023-03-04T01:52:46;44.27;;;30.40;;
11829;SDS011;5972;42.134;24.718;2023-03-04T01:55:14;40.00;;;28.97;;
11829;SDS011;5972;42.134;24.718;2023-03-04T01:57:43;43.73;;;31.53;;
11829;SDS011;5972;42.134;24.718;2023-03-04T02:00:17;47.47;;;32.03;;
11829;SDS011;5972;42.134;24.718;2023-03-04T02:02:49;45.47;;;32.60;;
11829;SDS011;5972;42.134;24.718;2023-03-04T02:05:18;48.80;;;33.07;;
11829;SDS011;5972;42.134;24.718;2023-03-04T02:07:47;48.67;;;33.23;;
11829;SDS011;5972;42.134;24.718;2023-03-04T02:10:14;48.17;;;33.37;;
11829;SDS011;5972;42.134;24.718;2023-03-04T02:12:41;46.10;;;32.80;;
11829;SDS011;5972;42.134;24.718;2023-03-04T02:15:09;43.90;;;31.10;;
11829;SDS011;5972;42.134;24.718;2023-03-04T02:17:37;45.53;;;31.97;;
11829;SDS011;5972;42.134;24.718;2023-03-04T02:20:06;44.33;;;31.70;;
11829;SDS011;5972;42.134;24.718;2023-03-04T02:22:51;45.23;;;31.50;;
11829;SDS011;5972;42.134;24.718;2023-03-04T02:25:24;41.80;;;30.27;;
11829;SDS011;5972;42.134;24.718;2023-03-04T02:28:00;42.03;;;31.13;;
11829;SDS011;5972;42.134;24.718;2023-03-04T02:30:27;41.37;;;31.67;;
11829;SDS011;5972;42.134;24.718;2023-03-04T02:32:54;40.77;;;30.50;;
11829;SDS011;5972;42.134;24.718;2023-03-04T02:35:21;42.73;;;30.23;;
11829;SDS011;5972;42.134;24.718;2023-03-04T02:37:48;43.40;;;30.80;;
11829;SDS011;5972;42.134;24.718;2023-03-04T02:40:15;43.70;;;31.10;;
11829;SDS011;5972;42.134;24.718;2023-03-04T02:42:48;39.13;;;30.00;;
11829;SDS011;5972;42.134;24.718;2023-03-04T02:48:06;47.00;;;29.07;;
11829;SDS011;5972;42.134;24.718;2023-03-04T02:50:35;39.13;;;30.17;;
11829;SDS011;5972;42.134;24.718;2023-03-04T02:53:05;47.13;;;32.63;;
11829;SDS011;5972;42.134;24.718;2023-03-04T02:55:32;47.67;;;32.40;;
11829;SDS011;5972;42.134;24.718;2023-03-04T02:57:59;46.00;;;32.73;;
11829;SDS011;5972;42.134;24.718;2023-03-04T03:00:26;43.63;;;31.37;;
11829;SDS011;5972;42.134;24.718;2023-03-04T03:02:58;47.13;;;32.87;;
11829;SDS011;5972;42.134;24.718;2023-03-04T03:05:25;43.67;;;31.63;;
11829;SDS011;5972;42.134;24.718;2023-03-04T03:07:55;43.87;;;31.57;;
11829;SDS011;5972;42.134;24.718;2023-03-04T03:10:21;45.93;;;32.07;;
11829;SDS011;5972;42.134;24.718;2023-03-04T03:12:48;44.63;;;31.93;;
11829;SDS011;5972;42.134;24.718;2023-03-04T03:15:15;42.63;;;32.10;;
11829;SDS011;5972;42.134;24.718;2023-03-04T03:17:42;49.60;;;31.87;;
11829;SDS011;5972;42.134;24.718;2023-03-04T03:20:11;48.10;;;30.77;;
11829;SDS011;5972;42.134;24.718;2023-03-04T03:22:39;48.20;;;31.40;;
11829;SDS011;5972;42.134;24.718;2023-03-04T03:25:07;47.03;;;31.27;;
11829;SDS011;5972;42.134;24.718;2023-03-04T03:27:35;40.73;;;30.27;;
11829;SDS011;5972;42.134;24.718;2023-03-04T03:30:02;44.00;;;31.03;;
11829;SDS011;5972;42.134;24.718;2023-03-04T03:32:29;42.30;;;30.33;;
11829;SDS011;5972;42.134;24.718;2023-03-04T03:34:56;42.03;;;30.07;;
11829;SDS011;5972;42.134;24.718;2023-03-04T03:37:24;42.07;;;28.67;;
11829;SDS011;5972;42.134;24.718;2023-03-04T03:39:51;43.43;;;30.10;;
11829;SDS011;5972;42.134;24.718;2023-03-04T03:42:18;38.90;;;27.87;;
11829;SDS011;5972;42.134;24.718;2023-03-04T03:44:45;43.93;;;28.40;;
11829;SDS011;5972;42.134;24.718;2023-03-04T03:47:11;39.60;;;28.07;;
11829;SDS011;5972;42.134;24.718;2023-03-04T03:49:38;37.50;;;27.17;;
11829;SDS011;5972;42.134;24.718;2023-03-04T03:52:05;39.70;;;29.13;;
11829;SDS011;5972;42.134;24.718;2023-03-04T03:54:36;43.63;;;28.80;;
11829;SDS011;5972;42.134;24.718;2023-03-04T03:57:03;41.93;;;28.67;;
11829;SDS011;5972;42.134;24.718;2023-03-04T03:59:30;37.73;;;27.50;;
11829;SDS011;5972;42.134;24.718;2023-03-04T04:01:57;38.40;;;27.97;;
11829;SDS011;5972;42.134;24.718;2023-03-04T04:04:23;39.30;;;28.27;;
11829;SDS011;5972;42.134;24.718;2023-03-04T04:06:50;40.83;;;29.03;;
11829;SDS011;5972;42.134;24.718;2023-03-04T04:09:17;36.03;;;28.07;;
11829;SDS011;5972;42.134;24.718;2023-03-04T04:11:45;40.37;;;27.47;;
11829;SDS011;5972;42.134;24.718;2023-03-04T04:14:12;38.83;;;27.80;;
11829;SDS011;5972;42.134;24.718;2023-03-04T04:16:40;40.40;;;28.50;;
11829;SDS011;5972;42.134;24.718;2023-03-04T04:19:06;41.87;;;29.80;;
11829;SDS011;5972;42.134;24.718;2023-03-04T04:21:35;40.13;;;31.10;;
11829;SDS011;5972;42.134;24.718;2023-03-04T04:24:02;43.97;;;30.07;;
11829;SDS011;5972;42.134;24.718;2023-03-04T04:26:29;41.97;;;30.77;;
11829;SDS011;5972;42.134;24.718;2023-03-04T04:28:57;44.67;;;31.23;;
11829;SDS011;5972;42.134;24.718;2023-03-04T04:31:24;50.97;;;34.03;;
11829;SDS011;5972;42.134;24.718;2023-03-04T04:33:51;46.90;;;33.53;;
11829;SDS011;5972;42.134;24.718;2023-03-04T04:36:17;48.67;;;33.40;;
11829;SDS011;5972;42.134;24.718;2023-03-04T04:38:44;50.03;;;34.73;;
11829;SDS011;5972;42.134;24.718;2023-03-04T04:41:16;45.80;;;32.37;;
11829;SDS011;5972;42.134;24.718;2023-03-04T04:43:47;45.80;;;32.50;;
11829;SDS011;5972;42.134;24.718;2023-03-04T04:46:16;46.53;;;33.20;;
11829;SDS011;5972;42.134;24.718;2023-03-04T04:48:43;55.03;;;35.10;;
11829;SDS011;5972;42.134;24.718;2023-03-04T04:51:10;53.83;;;34.83;;
11829;SDS011;5972;42.134;24.718;2023-03-04T04:53:38;48.67;;;35.47;;
11829;SDS011;5972;42.134;24.718;2023-03-04T04:56:09;44.60;;;32.73;;
11829;SDS011;5972;42.134;24.718;2023-03-04T04:58:36;46.13;;;29.97;;
11829;SDS011;5972;42.134;24.718;2023-03-04T05:01:04;47.40;;;30.00;;
11829;SDS011;5972;42.134;24.718;2023-03-04T05:03:33;43.10;;;29.77;;
11829;SDS011;5972;42.134;24.718;2023-03-04T05:06:01;37.80;;;29.07;;
11829;SDS011;5972;42.134;24.718;2023-03-04T05:08:29;39.73;;;28.83;;
11829;SDS011;5972;42.134;24.718;2023-03-04T05:10:56;41.73;;;28.90;;
11829;SDS011;5972;42.134;24.718;2023-03-04T05:13:22;37.20;;;27.73;;
11829;SDS011;5972;42.134;24.718;2023-03-04T05:15:50;49.03;;;28.50;;
11829;SDS011;5972;42.134;24.718;2023-03-04T05:18:17;37.13;;;27.60;;
11829;SDS011;5972;42.134;24.718;2023-03-04T05:20:49;39.77;;;28.20;;
11829;SDS011;5972;42.134;24.718;2023-03-04T05:23:17;38.20;;;26.83;;
11829;SDS011;5972;42.134;24.718;2023-03-04T05:25:44;42.87;;;28.73;;
11829;SDS011;5972;42.134;24.718;2023-03-04T05:28:11;35.87;;;27.30;;
11829;SDS011;5972;42.134;24.718;2023-03-04T05:30:38;40.67;;;28.23;;
11829;SDS011;5972;42.134;24.718;2023-03-04T05:33:05;36.27;;;28.57;;
11829;SDS011;5972;42.134;24.718;2023-03-04T05:35:33;37.97;;;28.03;;
11829;SDS011;5972;42.134;24.718;2023-03-04T05:38:02;42.63;;;29.30;;
11829;SDS011;5972;42.134;24.718;2023-03-04T05:40:30;39.03;;;29.30;;
11829;SDS011;5972;42.134;24.718;2023-03-04T05:42:57;45.63;;;29.07;;
11829;SDS011;5972;42.134;24.718;2023-03-04T05:45:23;43.60;;;28.63;;
11829;SDS011;5972;42.134;24.718;2023-03-04T05:47:51;39.47;;;29.40;;
11829;SDS011;5972;42.134;24.718;2023-03-04T05:50:19;40.17;;;29.40;;
11829;SDS011;5972;42.134;24.718;2023-03-04T05:52:46;47.07;;;33.63;;
11829;SDS011;5972;42.134;24.718;2023-03-04T05:55:15;49.50;;;34.40;;
11829;SDS011;5972;42.134;24.718;2023-03-04T05:57:42;53.30;;;34.73;;
11829;SDS011;5972;42.134;24.718;2023-03-04T06:00:09;53.63;;;35.20;;
11829;SDS011;5972;42.134;24.718;2023-03-04T06:02:37;53.17;;;35.13;;
11829;SDS011;5972;42.134;24.718;2023-03-04T06:05:05;62.50;;;38.27;;
11829;SDS011;5972;42.134;24.718;2023-03-04T06:07:32;65.27;;;40.13;;
11829;SDS011;5972;42.134;24.718;2023-03-04T06:09:59;59.07;;;38.17;;
11829;SDS011;5972;42.134;24.718;2023-03-04T06:12:27;54.77;;;37.37;;
11829;SDS011;5972;42.134;24.718;2023-03-04T06:14:54;64.57;;;42.10;;
11829;SDS011;5972;42.134;24.718;2023-03-04T06:17:21;65.13;;;40.07;;
11829;SDS011;5972;42.134;24.718;2023-03-04T06:19:48;70.17;;;41.40;;
11829;SDS011;5972;42.134;24.718;2023-03-04T06:22:14;62.83;;;40.47;;
11829;SDS011;5972;42.134;24.718;2023-03-04T06:24:41;72.17;;;47.80;;
11829;SDS011;5972;42.134;24.718;2023-03-04T06:27:08;225.70;;;118.20;;
11829;SDS011;5972;42.134;24.718;2023-03-04T06:29:37;96.33;;;47.47;;
11829;SDS011;5972;42.134;24.718;2023-03-04T06:32:04;84.43;;;40.70;;
11829;SDS011;5972;42.134;24.718;2023-03-04T06:34:31;119.77;;;46.70;;
11829;SDS011;5972;42.134;24.718;2023-03-04T06:36:57;108.03;;;50.40;;
11829;SDS011;5972;42.134;24.718;2023-03-04T06:39:25;124.47;;;58.43;;
11829;SDS011;5972;42.134;24.718;2023-03-04T06:41:52;88.40;;;39.67;;
11829;SDS011;5972;42.134;24.718;2023-03-04T06:44:18;178.20;;;32.37;;
11829;SDS011;5972;42.134;24.718;2023-03-04T06:46:46;102.67;;;43.20;;
11829;SDS011;5972;42.134;24.718;2023-03-04T06:49:13;99.10;;;37.30;;
11829;SDS011;5972;42.134;24.718;2023-03-04T06:51:40;79.93;;;34.33;;
11829;SDS011;5972;42.134;24.718;2023-03-04T06:54:07;119.93;;;41.80;;
11829;SDS011;5972;42.134;24.718;2023-03-04T06:56:34;66.97;;;34.00;;
11829;SDS011;5972;42.134;24.718;2023-03-04T06:59:01;61.27;;;36.37;;
11829;SDS011;5972;42.134;24.718;2023-03-04T07:01:28;46.00;;;28.73;;
11829;SDS011;5972;42.134;24.718;2023-03-04T07:03:57;58.10;;;36.00;;
11829;SDS011;5972;42.134;24.718;2023-03-04T07:06:25;46.97;;;28.47;;
11829;SDS011;5972;42.134;24.718;2023-03-04T07:08:53;46.20;;;31.10;;
11829;SDS011;5972;42.134;24.718;2023-03-04T07:11:20;48.40;;;31.03;;
11829;SDS011;5972;42.134;24.718;2023-03-04T07:13:48;36.47;;;26.00;;
11829;SDS011;5972;42.134;24.718;2023-03-04T07:16:16;38.53;;;26.80;;
11829;SDS011;5972;42.134;24.718;2023-03-04T07:18:45;39.57;;;26.07;;
11829;SDS011;5972;42.134;24.718;2023-03-04T07:21:14;39.20;;;26.43;;
11829;SDS011;5972;42.134;24.718;2023-03-04T07:23:41;36.00;;;25.87;;
11829;SDS011;5972;42.134;24.718;2023-03-04T07:26:08;36.53;;;25.83;;
11829;SDS011;5972;42.134;24.718;2023-03-04T07:28:35;37.73;;;26.47;;
11829;SDS011;5972;42.134;24.718;2023-03-04T07:31:09;45.90;;;26.90;;
11829;SDS011;5972;42.134;24.718;2023-03-04T07:33:37;38.73;;;26.13;;
11829;SDS011;5972;42.134;24.718;2023-03-04T07:36:04;40.77;;;27.17;;
11829;SDS011;5972;42.134;24.718;2023-03-04T07:38:33;37.20;;;26.07;;
11829;SDS011;5972;42.134;24.718;2023-03-04T07:41:00;35.93;;;25.50;;
11829;SDS011;5972;42.134;24.718;2023-03-04T07:43:27;37.80;;;26.27;;
11829;SDS011;5972;42.134;24.718;2023-03-04T07:45:57;38.13;;;25.77;;
11829;SDS011;5972;42.134;24.718;2023-03-04T07:48:25;34.43;;;25.90;;
11829;SDS011;5972;42.134;24.718;2023-03-04T07:51:01;37.53;;;25.80;;
11829;SDS011;5972;42.134;24.718;2023-03-04T07:53:29;36.50;;;26.17;;
11829;SDS011;5972;42.134;24.718;2023-03-04T07:55:58;43.63;;;30.53;;
11829;SDS011;5972;42.134;24.718;2023-03-04T07:58:24;41.33;;;29.53;;
11829;SDS011;5972;42.134;24.718;2023-03-04T08:00:51;43.17;;;28.53;;
11829;SDS011;5972;42.134;24.718;2023-03-04T08:03:18;42.33;;;30.30;;
11829;SDS011;5972;42.134;24.718;2023-03-04T08:05:45;43.27;;;29.47;;
11829;SDS011;5972;42.134;24.718;2023-03-04T08:08:12;43.03;;;27.80;;
11829;SDS011;5972;42.134;24.718;2023-03-04T08:10:39;48.77;;;29.90;;
11829;SDS011;5972;42.134;24.718;2023-03-04T08:13:07;45.87;;;29.47;;
11829;SDS011;5972;42.134;24.718;2023-03-04T08:15:38;42.23;;;29.27;;
11829;SDS011;5972;42.134;24.718;2023-03-04T08:18:05;42.80;;;29.20;;
11829;SDS011;5972;42.134;24.718;2023-03-04T08:20:32;40.27;;;28.80;;
11829;SDS011;5972;42.134;24.718;2023-03-04T08:22:59;47.30;;;32.83;;
11829;SDS011;5972;42.134;24.718;2023-03-04T08:25:26;46.40;;;32.57;;
11829;SDS011;5972;42.134;24.718;2023-03-04T08:27:52;57.53;;;36.30;;
11829;SDS011;5972;42.134;24.718;2023-03-04T08:30:21;56.63;;;36.47;;
11829;SDS011;5972;42.134;24.718;2023-03-04T08:32:48;65.97;;;38.27;;
11829;SDS011;5972;42.134;24.718;2023-03-04T08:35:15;64.53;;;40.20;;
11829;SDS011;5972;42.134;24.718;2023-03-04T08:37:42;57.23;;;39.53;;
11829;SDS011;5972;42.134;24.718;2023-03-04T08:40:11;64.70;;;39.93;;
11829;SDS011;5972;42.134;24.718;2023-03-04T08:42:39;65.53;;;40.00;;
11829;SDS011;5972;42.134;24.718;2023-03-04T08:45:06;61.80;;;39.97;;
11829;SDS011;5972;42.134;24.718;2023-03-04T08:47:35;62.80;;;39.28;;
11829;SDS011;5972;42.134;24.718;2023-03-04T08:50:02;59.13;;;39.35;;
11829;SDS011;5972;42.134;24.718;2023-03-04T08:52:29;63.53;;;40.72;;
11829;SDS011;5972;42.134;24.718;2023-03-04T08:54:56;67.57;;;43.90;;
11829;SDS011;5972;42.134;24.718;2023-03-04T08:57:23;67.50;;;43.40;;
11829;SDS011;5972;42.134;24.718;2023-03-04T08:59:50;73.25;;;43.22;;
11829;SDS011;5972;42.134;24.718;2023-03-04T09:02:17;61.88;;;40.85;;
11829;SDS011;5972;42.134;24.718;2023-03-04T09:04:45;60.35;;;39.13;;
11829;SDS011;5972;42.134;24.718;2023-03-04T09:07:12;60.97;;;39.13;;
11829;SDS011;5972;42.134;24.718;2023-03-04T09:09:39;55.90;;;37.53;;
11829;SDS011;5972;42.134;24.718;2023-03-04T09:12:06;58.75;;;37.85;;
11829;SDS011;5972;42.134;24.718;2023-03-04T09:14:33;61.58;;;36.88;;
11829;SDS011;5972;42.134;24.718;2023-03-04T09:17:00;52.25;;;36.83;;
11829;SDS011;5972;42.134;24.718;2023-03-04T09:19:27;49.42;;;33.55;;
11829;SDS011;5972;42.134;24.718;2023-03-04T09:21:56;50.47;;;34.00;;
11829;SDS011;5972;42.134;24.718;2023-03-04T09:24:23;50.00;;;33.53;;
11829;SDS011;5972;42.134;24.718;2023-03-04T09:26:50;53.83;;;34.05;;
11829;SDS011;5972;42.134;24.718;2023-03-04T09:29:18;47.63;;;32.90;;
11829;SDS011;5972;42.134;24.718;2023-03-04T09:31:45;56.25;;;36.08;;
11829;SDS011;5972;42.134;24.718;2023-03-04T09:34:12;46.95;;;33.35;;
11829;SDS011;5972;42.134;24.718;2023-03-04T09:36:39;46.20;;;33.67;;
11829;SDS011;5972;42.134;24.718;2023-03-04T09:39:07;45.50;;;33.08;;
11829;SDS011;5972;42.134;24.718;2023-03-04T09:41:36;42.53;;;32.60;;
11829;SDS011;5972;42.134;24.718;2023-03-04T09:44:06;45.03;;;33.45;;
11829;SDS011;5972;42.134;24.718;2023-03-04T09:46:39;42.08;;;31.48;;
11829;SDS011;5972;42.134;24.718;2023-03-04T09:49:08;44.17;;;32.20;;
11829;SDS011;5972;42.134;24.718;2023-03-04T09:51:44;44.83;;;32.75;;
11829;SDS011;5972;42.134;24.718;2023-03-04T09:54:19;39.50;;;30.08;;
11829;SDS011;5972;42.134;24.718;2023-03-04T09:56:59;35.70;;;29.45;;
11829;SDS011;5972;42.134;24.718;2023-03-04T09:59:43;35.20;;;27.85;;
11829;SDS011;5972;42.134;24.718;2023-03-04T10:02:16;31.55;;;25.92;;
11829;SDS011;5972;42.134;24.718;2023-03-04T10:04:53;31.27;;;26.02;;
11829;SDS011;5972;42.134;24.718;2023-03-04T10:07:26;33.60;;;25.60;;
11829;SDS011;5972;42.134;24.718;2023-03-04T10:09:58;29.58;;;23.30;;
11829;SDS011;5972;42.134;24.718;2023-03-04T10:12:29;28.67;;;22.75;;
11829;SDS011;5972;42.134;24.718;2023-03-04T10:15:02;27.75;;;23.05;;
11829;SDS011;5972;42.134;24.718;2023-03-04T10:17:33;25.88;;;21.65;;
11829;SDS011;5972;42.134;24.718;2023-03-04T10:20:03;29.05;;;21.30;;
11829;SDS011;5972;42.134;24.718;2023-03-04T10:22:33;27.50;;;21.98;;
11829;SDS011;5972;42.134;24.718;2023-03-04T10:25:13;32.83;;;23.98;;
11829;SDS011;5972;42.134;24.718;2023-03-04T10:27:42;31.85;;;24.60;;
11829;SDS011;5972;42.134;24.718;2023-03-04T10:30:17;31.05;;;24.75;;
11829;SDS011;5972;42.134;24.718;2023-03-04T10:32:48;29.33;;;23.70;;
11829;SDS011;5972;42.134;24.718;2023-03-04T10:35:15;29.25;;;23.30;;
11829;SDS011;5972;42.134;24.718;2023-03-04T10:37:44;28.77;;;21.95;;
11829;SDS011;5972;42.134;24.718;2023-03-04T10:40:19;31.75;;;23.77;;
11829;SDS011;5972;42.134;24.718;2023-03-04T10:42:48;29.83;;;23.92;;
11829;SDS011;5972;42.134;24.718;2023-03-04T10:45:19;31.08;;;25.50;;
11829;SDS011;5972;42.134;24.718;2023-03-04T10:47:51;32.55;;;25.90;;
11829;SDS011;5972;42.134;24.718;2023-03-04T10:50:22;30.92;;;25.13;;
11829;SDS011;5972;42.134;24.718;2023-03-04T10:52:51;38.03;;;27.23;;
11829;SDS011;5972;42.134;24.718;2023-03-04T10:55:22;37.28;;;26.92;;
11829;SDS011;5972;42.134;24.718;2023-03-04T10:57:51;33.92;;;26.08;;
11829;SDS011;5972;42.134;24.718;2023-03-04T11:00:26;37.72;;;27.10;;
11829;SDS011;5972;42.134;24.718;2023-03-04T11:06:02;33.53;;;25.90;;
11829;SDS011;5972;42.134;24.718;2023-03-04T11:08:31;32.38;;;26.02;;
11829;SDS011;5972;42.134;24.718;2023-03-04T11:10:59;31.80;;;25.50;;
11829;SDS011;5972;42.134;24.718;2023-03-04T11:13:26;34.25;;;27.27;;
11829;SDS011;5972;42.134;24.718;2023-03-04T11:15:54;32.38;;;25.80;;
11829;SDS011;5972;42.134;24.718;2023-03-04T11:18:22;32.58;;;25.13;;
11829;SDS011;5972;42.134;24.718;2023-03-04T11:20:55;35.97;;;26.30;;
11829;SDS011;5972;42.134;24.718;2023-03-04T11:23:24;32.17;;;25.13;;
11829;SDS011;5972;42.134;24.718;2023-03-04T11:26:03;30.83;;;23.45;;
11829;SDS011;5972;42.134;24.718;2023-03-04T11:28:38;32.90;;;24.70;;
11829;SDS011;5972;42.134;24.718;2023-03-04T11:31:09;35.70;;;25.48;;
11829;SDS011;5972;42.134;24.718;2023-03-04T11:33:42;28.20;;;23.20;;
11829;SDS011;5972;42.134;24.718;2023-03-04T11:39:00;25.77;;;21.20;;
11829;SDS011;5972;42.134;24.718;2023-03-04T11:41:31;27.60;;;21.33;;
11829;SDS011;5972;42.134;24.718;2023-03-04T11:44:00;28.67;;;24.13;;
11829;SDS011;5972;42.134;24.718;2023-03-04T11:46:39;31.58;;;23.58;;
11829;SDS011;5972;42.134;24.718;2023-03-04T11:49:41;29.02;;;23.65;;
11829;SDS011;5972;42.134;24.718;2023-03-04T11:52:23;28.67;;;23.65;;
11829;SDS011;5972;42.134;24.718;2023-03-04T11:55:02;28.25;;;23.40;;
11829;SDS011;5972;42.134;24.718;2023-03-04T11:57:41;29.52;;;23.88;;
11829;SDS011;5972;42.134;24.718;2023-03-04T12:00:20;27.75;;;22.50;;
11829;SDS011;5972;42.134;24.718;2023-03-04T12:03:01;28.25;;;23.15;;
11829;SDS011;5972;42.134;24.718;2023-03-04T12:05:49;25.90;;;20.70;;
11829;SDS011;5972;42.134;24.718;2023-03-04T12:08:30;26.30;;;20.50;;
11829;SDS011;5972;42.134;24.718;2023-03-04T12:11:05;21.73;;;17.98;;
11829;SDS011;5972;42.134;24.718;2023-03-04T12:16:57;26.90;;;21.27;;
11829;SDS011;5972;42.134;24.718;2023-03-04T12:22:51;22.95;;;19.08;;
11829;SDS011;5972;42.134;24.718;2023-03-04T12:25:32;25.25;;;20.25;;
11829;SDS011;5972;42.134;24.718;2023-03-04T12:28:08;27.77;;;21.13;;
11829;SDS011;5972;42.134;24.718;2023-03-04T12:30:56;26.58;;;22.02;;
11829;SDS011;5972;42.134;24.718;2023-03-04T12:33:34;25.20;;;20.75;;
11829;SDS011;5972;42.134;24.718;2023-03-04T12:36:13;22.67;;;18.63;;
11829;SDS011;5972;42.134;24.718;2023-03-04T12:38:49;27.02;;;19.42;;
11829;SDS011;5972;42.134;24.718;2023-03-04T12:41:33;27.00;;;20.20;;
11829;SDS011;5972;42.134;24.718;2023-03-04T12:44:10;22.55;;;18.10;;
11829;SDS011;5972;42.134;24.718;2023-03-04T12:46:45;21.17;;;17.98;;
11829;SDS011;5972;42.134;24.718;2023-03-04T12:52:31;18.55;;;16.52;;
11829;SDS011;5972;42.134;24.718;2023-03-04T12:55:09;20.15;;;16.35;;
11829;SDS011;5972;42.134;24.718;2023-03-04T12:57:38;16.98;;;14.77;;
11829;SDS011;5972;42.134;24.718;2023-03-04T13:00:07;17.55;;;14.75;;
11829;SDS011;5972;42.134;24.718;2023-03-04T13:02:53;19.50;;;15.20;;
11829;SDS011;5972;42.134;24.718;2023-03-04T13:05:35;19.35;;;15.77;;
11829;SDS011;5972;42.134;24.718;2023-03-04T13:08:26;16.83;;;14.75;;
11829;SDS011;5972;42.134;24.718;2023-03-04T13:11:02;23.27;;;15.52;;
11829;SDS011;5972;42.134;24.718;2023-03-04T13:13:59;19.90;;;15.00;;
11829;SDS011;5972;42.134;24.718;2023-03-04T13:16:28;18.77;;;14.85;;
11829;SDS011;5972;42.134;24.718;2023-03-04T13:18:58;20.67;;;15.57;;
11829;SDS011;5972;42.134;24.718;2023-03-04T13:21:27;19.15;;;15.43;;
11829;SDS011;5972;42.134;24.718;2023-03-04T13:23:55;18.00;;;15.43;;
11829;SDS011;5972;42.134;24.718;2023-03-04T13:26:27;21.50;;;16.83;;
11829;SDS011;5972;42.134;24.718;2023-03-04T13:31:58;18.17;;;14.32;;
11829;SDS011;5972;42.134;24.718;2023-03-04T13:34:50;22.33;;;14.77;;
11829;SDS011;5972;42.134;24.718;2023-03-04T13:37:25;18.10;;;14.90;;
11829;SDS011;5972;42.134;24.718;2023-03-04T13:45:52;22.20;;;14.93;;
11829;SDS011;5972;42.134;24.718;2023-03-04T13:48:24;18.98;;;14.63;;
11829;SDS011;5972;42.134;24.718;2023-03-04T13:50:56;17.13;;;14.75;;
11829;SDS011;5972;42.134;24.718;2023-03-04T13:56:23;19.23;;;15.30;;
11829;SDS011;5972;42.134;24.718;2023-03-04T13:59:10;18.67;;;16.27;;
11829;SDS011;5972;42.134;24.718;2023-03-04T14:01:55;19.45;;;15.65;;
11829;SDS011;5972;42.134;24.718;2023-03-04T14:04:29;20.00;;;14.85;;
11829;SDS011;5972;42.134;24.718;2023-03-04T14:06:59;17.60;;;15.18;;
11829;SDS011;5972;42.134;24.718;2023-03-04T14:09:27;20.67;;;16.35;;
11829;SDS011;5972;42.134;24.718;2023-03-04T14:11:56;18.13;;;15.20;;
11829;SDS011;5972;42.134;24.718;2023-03-04T14:14:27;20.13;;;15.10;;
11829;SDS011;5972;42.134;24.718;2023-03-04T14:16:57;20.23;;;16.80;;
11829;SDS011;5972;42.134;24.718;2023-03-04T14:19:27;18.65;;;16.02;;
11829;SDS011;5972;42.134;24.718;2023-03-04T14:21:56;20.02;;;16.17;;
11829;SDS011;5972;42.134;24.718;2023-03-04T14:24:26;17.95;;;15.95;;
11829;SDS011;5972;42.134;24.718;2023-03-04T14:27:03;17.25;;;15.32;;
11829;SDS011;5972;42.134;24.718;2023-03-04T14:29:36;18.85;;;15.88;;
11829;SDS011;5972;42.134;24.718;2023-03-04T14:32:04;19.40;;;16.33;;
11829;SDS011;5972;42.134;24.718;2023-03-04T14:34:32;21.42;;;16.98;;
11829;SDS011;5972;42.134;24.718;2023-03-04T14:37:02;18.88;;;15.23;;
11829;SDS011;5972;42.134;24.718;2023-03-04T14:39:37;20.20;;;16.20;;
11829;SDS011;5972;42.134;24.718;2023-03-04T14:42:06;20.15;;;17.00;;
11829;SDS011;5972;42.134;24.718;2023-03-04T14:44:36;22.83;;;18.70;;
11829;SDS011;5972;42.134;24.718;2023-03-04T14:47:08;19.52;;;16.30;;
11829;SDS011;5972;42.134;24.718;2023-03-04T14:49:42;19.33;;;15.50;;
11829;SDS011;5972;42.134;24.718;2023-03-04T14:52:26;18.83;;;15.63;;
11829;SDS011;5972;42.134;24.718;2023-03-04T14:55:00;19.58;;;15.93;;
11829;SDS011;5972;42.134;24.718;2023-03-04T14:57:35;21.65;;;16.33;;
11829;SDS011;5972;42.134;24.718;2023-03-04T15:02:53;29.88;;;16.70;;
11829;SDS011;5972;42.134;24.718;2023-03-04T15:05:23;19.85;;;16.60;;
11829;SDS011;5972;42.134;24.718;2023-03-04T15:07:53;23.70;;;17.10;;
11829;SDS011;5972;42.134;24.718;2023-03-04T15:10:23;20.50;;;16.90;;